Flight Track Log - Related Links

Times and Time Zones

All times are in EDT time to prevent confusion due to time zone crossing. See the SWA1017 flight status page for this flight to view local times or setup timezone preferences in your user account.

Time Position Orientation Groundspeed Altitude Reporting Facility
EDT Latitude Longitude Course Direction KTS MPH feet Rate Location/Type
16:46 30.1178 -97.5869 41° Northeast 238 274 4,700  Level Houston Center
16:47 30.1033 -97.4997 101° East 268 308 7,900 2,880 Climbing Houston Center
16:48 30.1431 -97.4233 59° Northeast 305 351 10,700 2,903 Climbing Houston Center
16:49 30.2389 -97.3953 14° North 346 398 13,900 3,097 Climbing Houston Center
16:50 30.5800 -97.2700 41° Northeast  Level FlightAware Approximate
16:50 30.3417 -97.3650 14° North 370 426 17,100  Level Houston Center
16:51 30.6388 -97.1946 41° Northeast  Level FlightAware Approximate
16:51 30.4642 -97.3283 14° North 384 442 21,500  Level Houston Center
16:52 30.5728 -97.2894 17° North 404 465 22,000 242 Climbing Houston Center
16:53 30.6644 -97.1889 43° Northeast 455 524 22,000  Level Houston Center
16:54 30.7517 -97.0844 46° Northeast 452 520 22,000  Level Houston Center
16:55 30.8394 -96.9783 46° Northeast 457 526 22,000  Level Houston Center
16:56 30.9425 -96.8569 45° Northeast 452 520 22,000  Level Houston Center
16:57 31.0311 -96.7492 46° Northeast 457 526 22,000  Level Houston Center
16:58 31.1194 -96.6425 46° Northeast 455 524 22,000  Level Houston Center
16:59 31.2075 -96.5361 46° Northeast 453 521 22,000  Level Houston Center
17:00 31.2969 -96.4281 46° Northeast 456 525 22,000  Level Houston Center
17:01 31.3814 -96.3269 46° Northeast 435 501 22,000  Level Houston Center
17:02 31.5147 -96.2994 10° North 413 475 22,000  Level Houston Center
17:03 31.6175 -96.2864 North 393 452 22,000 -159 Level Fort Worth Center
17:04 31.7133 -96.2778 North 398 458 21,700 -850 Descending Fort Worth Center
17:05 31.8344 -96.2592 North 398 458 20,300 -1,700 Descending Fort Worth Center
17:06 31.9408 -96.2456 North 384 442 18,300 -1,550 Descending Fort Worth Center
17:07 32.0386 -96.2344 North 374 430 17,200 -1,350 Descending Fort Worth Center
17:08 32.1325 -96.2261 North 346 398 15,600 -1,600 Descending Fort Worth Center
17:09 32.2203 -96.2347 355° North 324 373 14,000 -1,750 Descending Fort Worth Center
17:10 32.2961 -96.2878 329° Northwest 308 354 12,100 -1,750 Descending Fort Worth Center
17:11 32.3631 -96.3264 334° Northwest 308 354 10,500 -1,550 Descending Fort Worth Center
17:12 32.4514 -96.3794 333° Northwest 308 354 9,000 -950 Descending Fort Worth Center
17:13 32.5183 -96.4181 334° Northwest 308 354 8,600 -700 Descending Fort Worth Center
17:14 32.6003 -96.4689 332° Northwest 303 349 7,600 -1,000 Descending Fort Worth Center
17:15 32.6672 -96.5103 333° Northwest 303 349 6,600 -800 Descending Fort Worth Center
17:16 32.7367 -96.5639 327° Northwest 278 320 6,000 -750 Descending Fort Worth Center
17:17 32.7953 -96.6078 328° Northwest 261 300 5,100 -500 Descending Fort Worth Center
17:18 32.8519 -96.6567 324° Northwest 256 295 5,000 -224 Descending Fort Worth Center
17:19 32.8833 -96.7000 311° West 246 283 4,700 -505 Descending Dallas / Fort Worth TRACON
17:20 32.9167 -96.7667 301° West 229 264 4,100 -350 Descending Dallas / Fort Worth TRACON
17:21 32.9500 -96.8333 301° West 221 254 4,000 -446 Descending Dallas / Fort Worth TRACON
17:22 32.9667 -96.9000 287° West 200 230 3,200 -893 Descending Dallas / Fort Worth TRACON
17:23 32.9333 -96.9167 203° Southwest 176 203 2,200 -700 Descending Dallas / Fort Worth TRACON
17:24 32.8833 -96.9167 180° South 174 200 1,800 -632 Descending Dallas / Fort Worth TRACON
17:25 32.8667 -96.8833 121° Southeast 131 151 1,000 -889 Descending Dallas / Fort Worth TRACON
17:27 32.8471 -96.8518 163° South  Level Estimated

Login

Don't have an account? Register now (free) for customized features, flight alerts, and more!